sensor_id;sensor_type;location;lat;lon;timestamp;P1;durP1;ratioP1;P2;durP2;ratioP2
56242;SDS011;42155;53.096;23.226;2024-03-02T00:00:53;20.60;;;9.60;;
56242;SDS011;42155;53.096;23.226;2024-03-02T00:02:54;21.80;;;9.60;;
56242;SDS011;42155;53.096;23.226;2024-03-02T00:04:54;17.92;;;8.93;;
56242;SDS011;42155;53.096;23.226;2024-03-02T00:06:54;18.55;;;9.15;;
56242;SDS011;42155;53.096;23.226;2024-03-02T00:08:56;22.00;;;9.25;;
56242;SDS011;42155;53.096;23.226;2024-03-02T00:10:58;20.05;;;9.55;;
56242;SDS011;42155;53.096;23.226;2024-03-02T00:13:00;23.48;;;9.88;;
56242;SDS011;42155;53.096;23.226;2024-03-02T00:15:00;23.98;;;10.00;;
56242;SDS011;42155;53.096;23.226;2024-03-02T00:17:01;28.30;;;10.23;;
56242;SDS011;42155;53.096;23.226;2024-03-02T00:19:02;24.08;;;9.43;;
56242;SDS011;42155;53.096;23.226;2024-03-02T00:21:03;20.98;;;9.20;;
56242;SDS011;42155;53.096;23.226;2024-03-02T00:23:06;26.75;;;10.40;;
56242;SDS011;42155;53.096;23.226;2024-03-02T00:25:07;24.15;;;10.57;;
56242;SDS011;42155;53.096;23.226;2024-03-02T00:27:08;24.13;;;10.50;;
56242;SDS011;42155;53.096;23.226;2024-03-02T00:29:13;22.85;;;10.57;;
56242;SDS011;42155;53.096;23.226;2024-03-02T00:31:16;26.23;;;10.23;;
56242;SDS011;42155;53.096;23.226;2024-03-02T00:33:19;25.42;;;10.27;;
56242;SDS011;42155;53.096;23.226;2024-03-02T00:35:20;22.23;;;10.07;;
56242;SDS011;42155;53.096;23.226;2024-03-02T00:37:23;21.48;;;10.38;;
56242;SDS011;42155;53.096;23.226;2024-03-02T00:39:23;20.42;;;10.00;;
56242;SDS011;42155;53.096;23.226;2024-03-02T00:41:27;22.50;;;10.35;;
56242;SDS011;42155;53.096;23.226;2024-03-02T00:45:54;23.35;;;10.27;;
56242;SDS011;42155;53.096;23.226;2024-03-02T00:47:55;21.10;;;9.70;;
56242;SDS011;42155;53.096;23.226;2024-03-02T00:49:55;18.60;;;9.55;;
56242;SDS011;42155;53.096;23.226;2024-03-02T00:51:56;21.10;;;9.65;;
56242;SDS011;42155;53.096;23.226;2024-03-02T00:54:01;22.67;;;10.23;;
56242;SDS011;42155;53.096;23.226;2024-03-02T00:56:03;26.30;;;10.63;;
56242;SDS011;42155;53.096;23.226;2024-03-02T00:58:08;23.75;;;9.77;;
56242;SDS011;42155;53.096;23.226;2024-03-02T01:00:09;24.38;;;10.32;;
56242;SDS011;42155;53.096;23.226;2024-03-02T01:02:10;23.42;;;9.82;;
56242;SDS011;42155;53.096;23.226;2024-03-02T01:04:10;24.25;;;9.93;;
56242;SDS011;42155;53.096;23.226;2024-03-02T01:06:10;22.00;;;10.35;;
56242;SDS011;42155;53.096;23.226;2024-03-02T01:08:11;18.17;;;9.60;;
56242;SDS011;42155;53.096;23.226;2024-03-02T01:10:12;24.70;;;10.38;;
56242;SDS011;42155;53.096;23.226;2024-03-02T01:12:12;21.60;;;10.55;;
56242;SDS011;42155;53.096;23.226;2024-03-02T01:14:13;24.50;;;10.52;;
56242;SDS011;42155;53.096;23.226;2024-03-02T01:16:13;21.90;;;10.27;;
56242;SDS011;42155;53.096;23.226;2024-03-02T01:18:14;23.70;;;10.90;;
56242;SDS011;42155;53.096;23.226;2024-03-02T01:20:14;21.02;;;10.55;;
56242;SDS011;42155;53.096;23.226;2024-03-02T01:22:15;22.70;;;9.88;;
56242;SDS011;42155;53.096;23.226;2024-03-02T01:24:15;24.33;;;10.07;;
56242;SDS011;42155;53.096;23.226;2024-03-02T01:26:16;19.50;;;10.32;;
56242;SDS011;42155;53.096;23.226;2024-03-02T01:28:16;23.35;;;9.98;;
56242;SDS011;42155;53.096;23.226;2024-03-02T01:30:16;21.75;;;10.25;;
56242;SDS011;42155;53.096;23.226;2024-03-02T01:32:17;26.27;;;11.05;;
56242;SDS011;42155;53.096;23.226;2024-03-02T01:34:17;21.65;;;10.73;;
56242;SDS011;42155;53.096;23.226;2024-03-02T01:36:17;20.00;;;10.13;;
56242;SDS011;42155;53.096;23.226;2024-03-02T01:38:18;25.00;;;10.40;;
56242;SDS011;42155;53.096;23.226;2024-03-02T01:40:18;24.77;;;10.23;;
56242;SDS011;42155;53.096;23.226;2024-03-02T01:42:18;22.02;;;9.70;;
56242;SDS011;42155;53.096;23.226;2024-03-02T01:44:19;21.75;;;10.95;;
56242;SDS011;42155;53.096;23.226;2024-03-02T01:46:19;21.95;;;10.43;;
56242;SDS011;42155;53.096;23.226;2024-03-02T01:48:19;21.75;;;10.90;;
56242;SDS011;42155;53.096;23.226;2024-03-02T01:50:26;21.38;;;10.70;;
56242;SDS011;42155;53.096;23.226;2024-03-02T01:52:28;19.73;;;9.65;;
56242;SDS011;42155;53.096;23.226;2024-03-02T01:54:28;22.17;;;10.93;;
56242;SDS011;42155;53.096;23.226;2024-03-02T01:56:29;22.85;;;10.73;;
56242;SDS011;42155;53.096;23.226;2024-03-02T01:58:29;21.73;;;11.10;;
56242;SDS011;42155;53.096;23.226;2024-03-02T02:00:29;22.95;;;11.15;;
56242;SDS011;42155;53.096;23.226;2024-03-02T02:02:30;27.00;;;11.55;;
56242;SDS011;42155;53.096;23.226;2024-03-02T02:04:30;21.20;;;11.18;;
56242;SDS011;42155;53.096;23.226;2024-03-02T02:06:31;25.83;;;11.15;;
56242;SDS011;42155;53.096;23.226;2024-03-02T02:08:31;24.23;;;12.15;;
56242;SDS011;42155;53.096;23.226;2024-03-02T02:10:31;22.10;;;10.88;;
56242;SDS011;42155;53.096;23.226;2024-03-02T02:12:31;22.73;;;10.63;;
56242;SDS011;42155;53.096;23.226;2024-03-02T02:14:32;23.05;;;11.63;;
56242;SDS011;42155;53.096;23.226;2024-03-02T02:16:32;21.10;;;10.77;;
56242;SDS011;42155;53.096;23.226;2024-03-02T02:18:33;20.80;;;10.82;;
56242;SDS011;42155;53.096;23.226;2024-03-02T02:20:33;26.83;;;11.88;;
56242;SDS011;42155;53.096;23.226;2024-03-02T02:22:33;23.98;;;11.68;;
56242;SDS011;42155;53.096;23.226;2024-03-02T02:24:34;25.98;;;11.25;;
56242;SDS011;42155;53.096;23.226;2024-03-02T02:26:34;21.42;;;11.25;;
56242;SDS011;42155;53.096;23.226;2024-03-02T02:28:34;22.08;;;10.63;;
56242;SDS011;42155;53.096;23.226;2024-03-02T02:30:35;20.17;;;10.55;;
56242;SDS011;42155;53.096;23.226;2024-03-02T02:32:35;22.63;;;11.35;;
56242;SDS011;42155;53.096;23.226;2024-03-02T02:34:35;20.58;;;10.63;;
56242;SDS011;42155;53.096;23.226;2024-03-02T02:36:37;23.65;;;12.27;;
56242;SDS011;42155;53.096;23.226;2024-03-02T02:38:40;21.35;;;11.20;;
56242;SDS011;42155;53.096;23.226;2024-03-02T02:40:44;21.95;;;11.13;;
56242;SDS011;42155;53.096;23.226;2024-03-02T02:42:44;27.42;;;12.77;;
56242;SDS011;42155;53.096;23.226;2024-03-02T02:44:44;29.20;;;12.27;;
56242;SDS011;42155;53.096;23.226;2024-03-02T02:46:45;24.02;;;11.90;;
56242;SDS011;42155;53.096;23.226;2024-03-02T02:48:45;26.55;;;12.52;;
56242;SDS011;42155;53.096;23.226;2024-03-02T02:50:45;20.30;;;11.52;;
56242;SDS011;42155;53.096;23.226;2024-03-02T02:52:46;24.08;;;12.05;;
56242;SDS011;42155;53.096;23.226;2024-03-02T02:54:46;29.00;;;12.60;;
56242;SDS011;42155;53.096;23.226;2024-03-02T02:56:46;26.45;;;12.50;;
56242;SDS011;42155;53.096;23.226;2024-03-02T02:58:47;23.05;;;12.32;;
56242;SDS011;42155;53.096;23.226;2024-03-02T03:00:47;22.88;;;12.55;;
56242;SDS011;42155;53.096;23.226;2024-03-02T03:02:48;24.60;;;12.50;;
56242;SDS011;42155;53.096;23.226;2024-03-02T03:04:49;24.88;;;11.73;;
56242;SDS011;42155;53.096;23.226;2024-03-02T03:06:49;21.25;;;11.27;;
56242;SDS011;42155;53.096;23.226;2024-03-02T03:08:50;22.48;;;12.57;;
56242;SDS011;42155;53.096;23.226;2024-03-02T03:10:50;25.83;;;11.80;;
56242;SDS011;42155;53.096;23.226;2024-03-02T03:12:50;24.65;;;12.52;;
56242;SDS011;42155;53.096;23.226;2024-03-02T03:14:51;23.38;;;12.20;;
56242;SDS011;42155;53.096;23.226;2024-03-02T03:16:51;24.63;;;11.48;;
56242;SDS011;42155;53.096;23.226;2024-03-02T03:18:51;25.80;;;11.45;;
56242;SDS011;42155;53.096;23.226;2024-03-02T03:20:52;24.08;;;11.65;;
56242;SDS011;42155;53.096;23.226;2024-03-02T03:22:52;21.08;;;11.38;;
56242;SDS011;42155;53.096;23.226;2024-03-02T03:24:52;25.88;;;12.00;;
56242;SDS011;42155;53.096;23.226;2024-03-02T03:26:53;22.40;;;11.50;;
56242;SDS011;42155;53.096;23.226;2024-03-02T03:28:53;25.20;;;12.02;;
56242;SDS011;42155;53.096;23.226;2024-03-02T03:30:53;26.92;;;12.13;;
56242;SDS011;42155;53.096;23.226;2024-03-02T03:32:54;25.08;;;12.50;;
56242;SDS011;42155;53.096;23.226;2024-03-02T03:34:54;28.27;;;13.00;;
56242;SDS011;42155;53.096;23.226;2024-03-02T03:36:54;23.38;;;12.25;;
56242;SDS011;42155;53.096;23.226;2024-03-02T03:38:55;29.98;;;12.73;;
56242;SDS011;42155;53.096;23.226;2024-03-02T03:40:55;23.23;;;12.05;;
56242;SDS011;42155;53.096;23.226;2024-03-02T03:42:55;25.40;;;12.55;;
56242;SDS011;42155;53.096;23.226;2024-03-02T03:44:56;26.40;;;13.52;;
56242;SDS011;42155;53.096;23.226;2024-03-02T03:46:56;32.10;;;12.73;;
56242;SDS011;42155;53.096;23.226;2024-03-02T03:48:57;28.83;;;13.38;;
56242;SDS011;42155;53.096;23.226;2024-03-02T03:50:57;25.85;;;12.93;;
56242;SDS011;42155;53.096;23.226;2024-03-02T03:52:57;32.00;;;13.43;;
56242;SDS011;42155;53.096;23.226;2024-03-02T03:54:58;24.10;;;11.88;;
56242;SDS011;42155;53.096;23.226;2024-03-02T03:56:58;27.45;;;13.32;;
56242;SDS011;42155;53.096;23.226;2024-03-02T03:58:58;32.35;;;14.07;;
56242;SDS011;42155;53.096;23.226;2024-03-02T04:00:59;26.20;;;12.23;;
56242;SDS011;42155;53.096;23.226;2024-03-02T04:02:59;30.23;;;14.15;;
56242;SDS011;42155;53.096;23.226;2024-03-02T04:04:59;25.70;;;12.45;;
56242;SDS011;42155;53.096;23.226;2024-03-02T04:07:00;33.15;;;14.48;;
56242;SDS011;42155;53.096;23.226;2024-03-02T04:09:00;36.22;;;12.82;;
56242;SDS011;42155;53.096;23.226;2024-03-02T04:11:00;28.05;;;13.40;;
56242;SDS011;42155;53.096;23.226;2024-03-02T04:13:01;29.67;;;13.85;;
56242;SDS011;42155;53.096;23.226;2024-03-02T04:15:01;31.05;;;13.80;;
56242;SDS011;42155;53.096;23.226;2024-03-02T04:17:03;30.50;;;14.25;;
56242;SDS011;42155;53.096;23.226;2024-03-02T04:19:03;29.30;;;14.07;;
56242;SDS011;42155;53.096;23.226;2024-03-02T04:21:03;27.77;;;13.85;;
56242;SDS011;42155;53.096;23.226;2024-03-02T04:23:04;26.67;;;13.43;;
56242;SDS011;42155;53.096;23.226;2024-03-02T04:25:04;31.55;;;14.02;;
56242;SDS011;42155;53.096;23.226;2024-03-02T04:27:05;34.20;;;14.63;;
56242;SDS011;42155;53.096;23.226;2024-03-02T04:29:05;29.98;;;15.05;;
56242;SDS011;42155;53.096;23.226;2024-03-02T04:31:05;31.20;;;14.07;;
56242;SDS011;42155;53.096;23.226;2024-03-02T04:33:05;30.75;;;14.05;;
56242;SDS011;42155;53.096;23.226;2024-03-02T04:35:06;28.80;;;14.02;;
56242;SDS011;42155;53.096;23.226;2024-03-02T04:37:07;32.00;;;14.40;;
56242;SDS011;42155;53.096;23.226;2024-03-02T04:39:08;29.58;;;14.25;;
56242;SDS011;42155;53.096;23.226;2024-03-02T04:41:08;26.63;;;14.35;;
56242;SDS011;42155;53.096;23.226;2024-03-02T04:43:08;29.75;;;14.05;;
56242;SDS011;42155;53.096;23.226;2024-03-02T04:45:09;30.08;;;13.65;;
56242;SDS011;42155;53.096;23.226;2024-03-02T04:47:09;29.73;;;14.27;;
56242;SDS011;42155;53.096;23.226;2024-03-02T04:49:09;28.42;;;13.68;;
56242;SDS011;42155;53.096;23.226;2024-03-02T04:51:10;27.90;;;13.95;;
56242;SDS011;42155;53.096;23.226;2024-03-02T04:53:10;29.92;;;14.02;;
56242;SDS011;42155;53.096;23.226;2024-03-02T04:55:11;32.83;;;14.40;;
56242;SDS011;42155;53.096;23.226;2024-03-02T04:57:11;28.92;;;14.38;;
56242;SDS011;42155;53.096;23.226;2024-03-02T04:59:11;31.23;;;14.70;;
56242;SDS011;42155;53.096;23.226;2024-03-02T05:01:11;34.58;;;14.65;;
56242;SDS011;42155;53.096;23.226;2024-03-02T05:03:12;32.20;;;14.85;;
56242;SDS011;42155;53.096;23.226;2024-03-02T05:05:12;29.95;;;13.70;;
56242;SDS011;42155;53.096;23.226;2024-03-02T05:07:13;30.08;;;14.40;;
56242;SDS011;42155;53.096;23.226;2024-03-02T05:09:13;29.48;;;14.80;;
56242;SDS011;42155;53.096;23.226;2024-03-02T05:11:13;32.13;;;15.27;;
56242;SDS011;42155;53.096;23.226;2024-03-02T05:13:14;28.90;;;14.25;;
56242;SDS011;42155;53.096;23.226;2024-03-02T05:15:14;27.73;;;14.23;;
56242;SDS011;42155;53.096;23.226;2024-03-02T05:17:15;29.60;;;14.43;;
56242;SDS011;42155;53.096;23.226;2024-03-02T05:19:15;32.58;;;14.82;;
56242;SDS011;42155;53.096;23.226;2024-03-02T05:21:15;36.35;;;15.45;;
56242;SDS011;42155;53.096;23.226;2024-03-02T05:23:16;36.42;;;15.90;;
56242;SDS011;42155;53.096;23.226;2024-03-02T05:25:16;31.83;;;14.88;;
56242;SDS011;42155;53.096;23.226;2024-03-02T05:27:16;35.75;;;15.57;;
56242;SDS011;42155;53.096;23.226;2024-03-02T05:29:17;31.45;;;15.05;;
56242;SDS011;42155;53.096;23.226;2024-03-02T05:31:17;31.98;;;14.90;;
56242;SDS011;42155;53.096;23.226;2024-03-02T05:33:17;31.75;;;14.90;;
56242;SDS011;42155;53.096;23.226;2024-03-02T05:35:18;36.97;;;16.45;;
56242;SDS011;42155;53.096;23.226;2024-03-02T05:37:18;27.48;;;14.23;;
56242;SDS011;42155;53.096;23.226;2024-03-02T05:39:18;29.25;;;15.10;;
56242;SDS011;42155;53.096;23.226;2024-03-02T05:41:19;32.25;;;15.40;;
56242;SDS011;42155;53.096;23.226;2024-03-02T05:43:19;33.53;;;15.63;;
56242;SDS011;42155;53.096;23.226;2024-03-02T05:45:19;34.38;;;15.57;;
56242;SDS011;42155;53.096;23.226;2024-03-02T05:47:20;35.10;;;16.13;;
56242;SDS011;42155;53.096;23.226;2024-03-02T05:49:20;36.60;;;16.27;;
56242;SDS011;42155;53.096;23.226;2024-03-02T05:51:20;41.17;;;17.30;;
56242;SDS011;42155;53.096;23.226;2024-03-02T05:53:21;32.70;;;15.30;;
56242;SDS011;42155;53.096;23.226;2024-03-02T05:55:21;35.80;;;16.85;;
56242;SDS011;42155;53.096;23.226;2024-03-02T05:57:21;38.08;;;17.17;;
56242;SDS011;42155;53.096;23.226;2024-03-02T05:59:22;34.95;;;16.00;;
56242;SDS011;42155;53.096;23.226;2024-03-02T06:01:22;32.75;;;16.13;;
56242;SDS011;42155;53.096;23.226;2024-03-02T06:03:22;36.45;;;16.63;;
56242;SDS011;42155;53.096;23.226;2024-03-02T06:05:23;35.22;;;16.05;;
56242;SDS011;42155;53.096;23.226;2024-03-02T06:07:23;36.92;;;16.08;;
56242;SDS011;42155;53.096;23.226;2024-03-02T06:09:24;33.65;;;17.08;;
56242;SDS011;42155;53.096;23.226;2024-03-02T06:11:24;39.90;;;16.20;;
56242;SDS011;42155;53.096;23.226;2024-03-02T06:13:24;34.55;;;16.23;;
56242;SDS011;42155;53.096;23.226;2024-03-02T06:15:25;43.38;;;16.17;;
56242;SDS011;42155;53.096;23.226;2024-03-02T06:17:25;35.08;;;16.08;;
56242;SDS011;42155;53.096;23.226;2024-03-02T06:19:26;37.28;;;16.05;;
56242;SDS011;42155;53.096;23.226;2024-03-02T06:21:26;42.03;;;16.52;;
56242;SDS011;42155;53.096;23.226;2024-03-02T06:23:27;38.83;;;17.25;;
56242;SDS011;42155;53.096;23.226;2024-03-02T06:25:27;38.00;;;16.13;;
56242;SDS011;42155;53.096;23.226;2024-03-02T06:27:28;41.53;;;18.13;;
56242;SDS011;42155;53.096;23.226;2024-03-02T06:29:28;40.50;;;17.33;;
56242;SDS011;42155;53.096;23.226;2024-03-02T06:31:28;39.10;;;17.33;;
56242;SDS011;42155;53.096;23.226;2024-03-02T06:33:29;31.60;;;15.13;;
56242;SDS011;42155;53.096;23.226;2024-03-02T06:35:29;34.67;;;16.17;;
56242;SDS011;42155;53.096;23.226;2024-03-02T06:37:29;40.95;;;17.15;;
56242;SDS011;42155;53.096;23.226;2024-03-02T06:39:30;32.70;;;14.80;;
56242;SDS011;42155;53.096;23.226;2024-03-02T06:41:30;38.50;;;16.98;;
56242;SDS011;42155;53.096;23.226;2024-03-02T06:43:30;39.88;;;16.75;;
56242;SDS011;42155;53.096;23.226;2024-03-02T06:45:31;36.35;;;17.08;;
56242;SDS011;42155;53.096;23.226;2024-03-02T06:47:31;34.15;;;15.07;;
56242;SDS011;42155;53.096;23.226;2024-03-02T06:49:31;32.65;;;15.95;;
56242;SDS011;42155;53.096;23.226;2024-03-02T06:51:33;34.25;;;15.82;;
56242;SDS011;42155;53.096;23.226;2024-03-02T06:53:34;37.50;;;16.70;;
56242;SDS011;42155;53.096;23.226;2024-03-02T06:55:34;34.80;;;16.65;;
56242;SDS011;42155;53.096;23.226;2024-03-02T06:57:34;41.40;;;19.35;;
56242;SDS011;42155;53.096;23.226;2024-03-02T06:59:35;37.45;;;16.73;;
56242;SDS011;42155;53.096;23.226;2024-03-02T07:01:35;33.55;;;15.95;;
56242;SDS011;42155;53.096;23.226;2024-03-02T07:03:35;34.22;;;17.60;;
56242;SDS011;42155;53.096;23.226;2024-03-02T07:05:36;35.53;;;17.52;;
56242;SDS011;42155;53.096;23.226;2024-03-02T07:07:36;38.80;;;16.13;;
56242;SDS011;42155;53.096;23.226;2024-03-02T07:09:37;37.03;;;17.38;;
56242;SDS011;42155;53.096;23.226;2024-03-02T07:11:37;39.22;;;17.17;;
56242;SDS011;42155;53.096;23.226;2024-03-02T07:13:37;41.88;;;17.63;;
56242;SDS011;42155;53.096;23.226;2024-03-02T07:15:38;43.40;;;17.65;;
56242;SDS011;42155;53.096;23.226;2024-03-02T07:17:38;34.83;;;16.38;;
56242;SDS011;42155;53.096;23.226;2024-03-02T07:19:38;41.38;;;18.00;;
56242;SDS011;42155;53.096;23.226;2024-03-02T07:21:39;37.10;;;17.63;;
56242;SDS011;42155;53.096;23.226;2024-03-02T07:23:39;49.08;;;22.05;;
56242;SDS011;42155;53.096;23.226;2024-03-02T07:25:39;39.42;;;18.50;;
56242;SDS011;42155;53.096;23.226;2024-03-02T07:27:40;39.05;;;18.63;;
56242;SDS011;42155;53.096;23.226;2024-03-02T07:29:40;44.05;;;18.50;;
56242;SDS011;42155;53.096;23.226;2024-03-02T07:31:41;35.70;;;17.50;;
56242;SDS011;42155;53.096;23.226;2024-03-02T07:33:43;38.53;;;18.48;;
56242;SDS011;42155;53.096;23.226;2024-03-02T07:35:44;37.58;;;17.38;;
56242;SDS011;42155;53.096;23.226;2024-03-02T07:37:44;34.97;;;16.98;;
56242;SDS011;42155;53.096;23.226;2024-03-02T07:39:45;37.53;;;17.25;;
56242;SDS011;42155;53.096;23.226;2024-03-02T07:41:45;32.42;;;15.20;;
56242;SDS011;42155;53.096;23.226;2024-03-02T07:43:46;34.00;;;15.38;;
56242;SDS011;42155;53.096;23.226;2024-03-02T07:45:47;31.48;;;15.68;;
56242;SDS011;42155;53.096;23.226;2024-03-02T07:47:47;28.55;;;15.13;;
56242;SDS011;42155;53.096;23.226;2024-03-02T07:49:48;30.55;;;14.93;;
56242;SDS011;42155;53.096;23.226;2024-03-02T07:51:48;30.63;;;14.05;;
56242;SDS011;42155;53.096;23.226;2024-03-02T07:53:48;35.00;;;15.65;;
56242;SDS011;42155;53.096;23.226;2024-03-02T07:55:49;37.20;;;16.65;;
56242;SDS011;42155;53.096;23.226;2024-03-02T07:57:49;32.67;;;15.23;;
56242;SDS011;42155;53.096;23.226;2024-03-02T07:59:50;32.55;;;15.65;;
56242;SDS011;42155;53.096;23.226;2024-03-02T08:01:50;36.63;;;16.30;;
56242;SDS011;42155;53.096;23.226;2024-03-02T08:03:50;31.40;;;14.35;;
56242;SDS011;42155;53.096;23.226;2024-03-02T08:05:51;28.67;;;14.48;;
56242;SDS011;42155;53.096;23.226;2024-03-02T08:07:51;37.72;;;15.80;;
56242;SDS011;42155;53.096;23.226;2024-03-02T08:09:52;29.05;;;14.30;;
56242;SDS011;42155;53.096;23.226;2024-03-02T08:11:52;32.95;;;14.25;;
56242;SDS011;42155;53.096;23.226;2024-03-02T08:13:52;30.98;;;15.05;;
56242;SDS011;42155;53.096;23.226;2024-03-02T08:15:53;32.55;;;15.30;;
56242;SDS011;42155;53.096;23.226;2024-03-02T08:17:53;32.22;;;14.68;;
56242;SDS011;42155;53.096;23.226;2024-03-02T08:19:54;31.10;;;14.75;;
56242;SDS011;42155;53.096;23.226;2024-03-02T08:21:54;32.95;;;15.25;;
56242;SDS011;42155;53.096;23.226;2024-03-02T08:23:55;28.90;;;14.75;;
56242;SDS011;42155;53.096;23.226;2024-03-02T08:25:55;24.65;;;12.68;;
56242;SDS011;42155;53.096;23.226;2024-03-02T08:27:56;32.30;;;15.75;;
56242;SDS011;42155;53.096;23.226;2024-03-02T08:29:56;29.10;;;13.85;;
56242;SDS011;42155;53.096;23.226;2024-03-02T08:31:56;26.92;;;13.32;;
56242;SDS011;42155;53.096;23.226;2024-03-02T08:33:57;29.90;;;13.02;;
56242;SDS011;42155;53.096;23.226;2024-03-02T08:35:57;32.35;;;14.75;;
56242;SDS011;42155;53.096;23.226;2024-03-02T08:37:58;26.55;;;14.95;;
56242;SDS011;42155;53.096;23.226;2024-03-02T08:39:58;28.48;;;13.10;;
56242;SDS011;42155;53.096;23.226;2024-03-02T08:41:58;29.33;;;13.48;;
56242;SDS011;42155;53.096;23.226;2024-03-02T08:43:59;29.63;;;14.23;;
56242;SDS011;42155;53.096;23.226;2024-03-02T08:45:59;28.67;;;13.40;;
56242;SDS011;42155;53.096;23.226;2024-03-02T08:48:00;35.88;;;14.45;;
56242;SDS011;42155;53.096;23.226;2024-03-02T08:50:00;29.83;;;13.50;;
56242;SDS011;42155;53.096;23.226;2024-03-02T08:52:01;31.95;;;13.80;;
56242;SDS011;42155;53.096;23.226;2024-03-02T08:54:01;30.48;;;14.05;;
56242;SDS011;42155;53.096;23.226;2024-03-02T08:56:01;30.75;;;14.13;;
56242;SDS011;42155;53.096;23.226;2024-03-02T08:58:02;31.60;;;13.90;;
56242;SDS011;42155;53.096;23.226;2024-03-02T09:00:02;29.15;;;14.15;;
56242;SDS011;42155;53.096;23.226;2024-03-02T09:02:03;31.65;;;14.07;;
56242;SDS011;42155;53.096;23.226;2024-03-02T09:04:04;24.38;;;13.63;;
56242;SDS011;42155;53.096;23.226;2024-03-02T09:06:04;34.97;;;15.27;;
56242;SDS011;42155;53.096;23.226;2024-03-02T09:08:04;34.70;;;15.38;;
56242;SDS011;42155;53.096;23.226;2024-03-02T09:10:05;32.92;;;14.32;;
56242;SDS011;42155;53.096;23.226;2024-03-02T09:12:06;27.27;;;13.07;;
56242;SDS011;42155;53.096;23.226;2024-03-02T09:14:07;28.63;;;15.07;;
56242;SDS011;42155;53.096;23.226;2024-03-02T09:16:07;27.90;;;14.38;;
56242;SDS011;42155;53.096;23.226;2024-03-02T09:18:07;24.75;;;13.90;;
56242;SDS011;42155;53.096;23.226;2024-03-02T09:20:08;27.38;;;13.10;;
56242;SDS011;42155;53.096;23.226;2024-03-02T09:22:09;30.52;;;14.15;;
56242;SDS011;42155;53.096;23.226;2024-03-02T09:24:09;31.98;;;15.57;;
56242;SDS011;42155;53.096;23.226;2024-03-02T09:26:09;31.23;;;13.20;;
56242;SDS011;42155;53.096;23.226;2024-03-02T09:28:10;29.50;;;14.70;;
56242;SDS011;42155;53.096;23.226;2024-03-02T09:30:11;35.25;;;16.10;;
56242;SDS011;42155;53.096;23.226;2024-03-02T09:32:12;41.90;;;21.55;;
56242;SDS011;42155;53.096;23.226;2024-03-02T09:34:13;30.38;;;15.07;;
56242;SDS011;42155;53.096;23.226;2024-03-02T09:36:17;40.38;;;18.15;;
56242;SDS011;42155;53.096;23.226;2024-03-02T09:38:18;80.85;;;32.95;;
56242;SDS011;42155;53.096;23.226;2024-03-02T09:40:21;142.45;;;54.20;;
56242;SDS011;42155;53.096;23.226;2024-03-02T09:42:22;82.65;;;31.17;;
56242;SDS011;42155;53.096;23.226;2024-03-02T09:44:23;59.42;;;22.08;;
56242;SDS011;42155;53.096;23.226;2024-03-02T09:46:23;39.70;;;18.02;;
56242;SDS011;42155;53.096;23.226;2024-03-02T09:48:24;33.97;;;14.73;;
56242;SDS011;42155;53.096;23.226;2024-03-02T09:50:24;42.90;;;18.23;;
56242;SDS011;42155;53.096;23.226;2024-03-02T09:52:25;28.98;;;13.95;;
56242;SDS011;42155;53.096;23.226;2024-03-02T09:54:25;34.60;;;14.85;;
56242;SDS011;42155;53.096;23.226;2024-03-02T09:56:26;40.15;;;15.18;;
56242;SDS011;42155;53.096;23.226;2024-03-02T09:58:26;30.17;;;14.95;;
56242;SDS011;42155;53.096;23.226;2024-03-02T10:00:26;28.10;;;13.77;;
56242;SDS011;42155;53.096;23.226;2024-03-02T10:02:27;31.05;;;14.70;;
56242;SDS011;42155;53.096;23.226;2024-03-02T10:04:27;33.85;;;13.90;;
56242;SDS011;42155;53.096;23.226;2024-03-02T10:06:29;31.80;;;14.13;;
56242;SDS011;42155;53.096;23.226;2024-03-02T10:08:40;40.72;;;16.23;;
56242;SDS011;42155;53.096;23.226;2024-03-02T10:10:43;31.50;;;15.35;;
56242;SDS011;42155;53.096;23.226;2024-03-02T10:12:43;31.63;;;13.85;;
56242;SDS011;42155;53.096;23.226;2024-03-02T10:14:44;33.47;;;16.40;;
56242;SDS011;42155;53.096;23.226;2024-03-02T10:16:45;26.80;;;14.95;;
56242;SDS011;42155;53.096;23.226;2024-03-02T10:18:45;28.70;;;14.00;;
56242;SDS011;42155;53.096;23.226;2024-03-02T10:20:46;35.10;;;16.25;;
56242;SDS011;42155;53.096;23.226;2024-03-02T10:22:46;28.50;;;13.95;;
56242;SDS011;42155;53.096;23.226;2024-03-02T10:24:46;26.98;;;13.88;;
56242;SDS011;42155;53.096;23.226;2024-03-02T10:26:47;27.15;;;12.73;;
56242;SDS011;42155;53.096;23.226;2024-03-02T10:28:47;28.30;;;13.63;;
56242;SDS011;42155;53.096;23.226;2024-03-02T10:30:48;31.08;;;13.98;;
56242;SDS011;42155;53.096;23.226;2024-03-02T10:32:49;33.42;;;14.05;;
56242;SDS011;42155;53.096;23.226;2024-03-02T10:34:49;34.72;;;14.38;;
56242;SDS011;42155;53.096;23.226;2024-03-02T10:36:50;32.47;;;14.38;;
56242;SDS011;42155;53.096;23.226;2024-03-02T10:38:51;36.08;;;16.92;;
56242;SDS011;42155;53.096;23.226;2024-03-02T10:40:51;26.90;;;14.00;;
56242;SDS011;42155;53.096;23.226;2024-03-02T10:42:52;39.47;;;17.52;;
56242;SDS011;42155;53.096;23.226;2024-03-02T10:44:52;30.17;;;13.98;;
56242;SDS011;42155;53.096;23.226;2024-03-02T10:46:53;27.17;;;13.57;;
56242;SDS011;42155;53.096;23.226;2024-03-02T10:48:59;32.45;;;14.27;;
56242;SDS011;42155;53.096;23.226;2024-03-02T10:51:00;29.30;;;14.60;;
56242;SDS011;42155;53.096;23.226;2024-03-02T10:53:01;44.95;;;19.48;;
56242;SDS011;42155;53.096;23.226;2024-03-02T10:55:01;57.65;;;23.70;;
56242;SDS011;42155;53.096;23.226;2024-03-02T10:57:02;51.75;;;23.02;;
56242;SDS011;42155;53.096;23.226;2024-03-02T11:01:16;58.83;;;25.17;;
56242;SDS011;42155;53.096;23.226;2024-03-02T11:03:18;35.10;;;17.25;;
56242;SDS011;42155;53.096;23.226;2024-03-02T11:05:23;31.38;;;14.52;;
56242;SDS011;42155;53.096;23.226;2024-03-02T11:07:27;33.55;;;17.02;;
56242;SDS011;42155;53.096;23.226;2024-03-02T11:09:28;42.28;;;19.80;;
56242;SDS011;42155;53.096;23.226;2024-03-02T11:11:30;37.85;;;17.27;;
56242;SDS011;42155;53.096;23.226;2024-03-02T11:13:34;29.48;;;13.65;;
56242;SDS011;42155;53.096;23.226;2024-03-02T11:15:35;42.97;;;18.92;;
56242;SDS011;42155;53.096;23.226;2024-03-02T11:17:35;38.92;;;17.88;;
56242;SDS011;42155;53.096;23.226;2024-03-02T11:19:37;39.30;;;17.17;;
56242;SDS011;42155;53.096;23.226;2024-03-02T11:21:39;40.75;;;18.40;;
56242;SDS011;42155;53.096;23.226;2024-03-02T11:23:40;36.72;;;15.90;;
56242;SDS011;42155;53.096;23.226;2024-03-02T11:25:40;29.13;;;14.68;;
56242;SDS011;42155;53.096;23.226;2024-03-02T11:29:47;26.70;;;12.90;;
56242;SDS011;42155;53.096;23.226;2024-03-02T11:31:59;25.00;;;12.45;;
56242;SDS011;42155;53.096;23.226;2024-03-02T11:34:16;27.50;;;12.50;;
56242;SDS011;42155;53.096;23.226;2024-03-02T11:36:17;29.27;;;14.65;;
56242;SDS011;42155;53.096;23.226;2024-03-02T11:38:18;27.55;;;13.02;;
56242;SDS011;42155;53.096;23.226;2024-03-02T11:40:21;27.60;;;13.35;;
56242;SDS011;42155;53.096;23.226;2024-03-02T11:42:22;28.20;;;13.77;;